sensor_id;sensor_type;location;lat;lon;timestamp;temperature;humidity
44435;DHT22;30138;20.964;105.830;2023-01-29T00:01:03;19.80;79.70
44435;DHT22;30138;20.964;105.830;2023-01-29T00:06:12;19.80;79.60
44435;DHT22;30138;20.964;105.830;2023-01-29T00:11:22;19.80;79.60
44435;DHT22;30138;20.964;105.830;2023-01-29T00:16:30;19.80;79.70
44435;DHT22;30138;20.964;105.830;2023-01-29T00:21:39;19.90;79.50
44435;DHT22;30138;20.964;105.830;2023-01-29T00:26:51;19.90;79.70
44435;DHT22;30138;20.964;105.830;2023-01-29T00:32:01;19.90;79.70
44435;DHT22;30138;20.964;105.830;2023-01-29T00:37:09;19.90;79.70
44435;DHT22;30138;20.964;105.830;2023-01-29T00:42:19;19.90;79.60
44435;DHT22;30138;20.964;105.830;2023-01-29T00:47:44;19.90;80.00
44435;DHT22;30138;20.964;105.830;2023-01-29T00:52:52;19.90;80.00
44435;DHT22;30138;20.964;105.830;2023-01-29T00:58:04;19.90;79.70
44435;DHT22;30138;20.964;105.830;2023-01-29T01:03:12;19.90;79.80
44435;DHT22;30138;20.964;105.830;2023-01-29T01:08:23;20.00;79.80
44435;DHT22;30138;20.964;105.830;2023-01-29T01:13:48;20.10;79.90
44435;DHT22;30138;20.964;105.830;2023-01-29T01:18:57;20.30;80.90
44435;DHT22;30138;20.964;105.830;2023-01-29T01:24:05;20.40;80.20
44435;DHT22;30138;20.964;105.830;2023-01-29T01:29:23;20.50;78.90
44435;DHT22;30138;20.964;105.830;2023-01-29T01:34:31;20.70;78.00
44435;DHT22;30138;20.964;105.830;2023-01-29T01:39:39;20.90;77.60
44435;DHT22;30138;20.964;105.830;2023-01-29T01:44:57;21.00;76.60
44435;DHT22;30138;20.964;105.830;2023-01-29T01:50:10;21.10;75.70
44435;DHT22;30138;20.964;105.830;2023-01-29T01:55:23;21.00;75.70
44435;DHT22;30138;20.964;105.830;2023-01-29T02:00:39;21.00;75.50
44435;DHT22;30138;20.964;105.830;2023-01-29T02:05:45;21.00;75.30
44435;DHT22;30138;20.964;105.830;2023-01-29T02:11:10;20.90;75.00
44435;DHT22;30138;20.964;105.830;2023-01-29T02:16:21;20.80;75.20
44435;DHT22;30138;20.964;105.830;2023-01-29T02:21:55;20.80;76.00
44435;DHT22;30138;20.964;105.830;2023-01-29T02:27:14;20.90;75.80
44435;DHT22;30138;20.964;105.830;2023-01-29T02:32:32;20.90;75.80
44435;DHT22;30138;20.964;105.830;2023-01-29T02:38:03;20.90;75.90
44435;DHT22;30138;20.964;105.830;2023-01-29T02:43:32;21.00;74.70
44435;DHT22;30138;20.964;105.830;2023-01-29T02:48:54;21.00;74.30
44435;DHT22;30138;20.964;105.830;2023-01-29T02:54:13;21.10;74.50
44435;DHT22;30138;20.964;105.830;2023-01-29T02:59:33;21.10;74.20
44435;DHT22;30138;20.964;105.830;2023-01-29T03:04:55;21.20;73.60
44435;DHT22;30138;20.964;105.830;2023-01-29T03:10:16;21.20;73.60
44435;DHT22;30138;20.964;105.830;2023-01-29T03:15:30;21.20;73.90
44435;DHT22;30138;20.964;105.830;2023-01-29T03:21:00;21.20;73.90
44435;DHT22;30138;20.964;105.830;2023-01-29T03:26:34;21.30;73.80
44435;DHT22;30138;20.964;105.830;2023-01-29T03:31:59;21.30;73.40
44435;DHT22;30138;20.964;105.830;2023-01-29T03:37:20;21.30;72.20
44435;DHT22;30138;20.964;105.830;2023-01-29T03:42:46;21.30;70.90
44435;DHT22;30138;20.964;105.830;2023-01-29T03:48:04;21.40;70.00
44435;DHT22;30138;20.964;105.830;2023-01-29T03:53:27;21.40;69.00
44435;DHT22;30138;20.964;105.830;2023-01-29T03:58:41;21.40;68.40
44435;DHT22;30138;20.964;105.830;2023-01-29T04:04:11;21.30;67.50
44435;DHT22;30138;20.964;105.830;2023-01-29T04:09:30;21.40;67.10
44435;DHT22;30138;20.964;105.830;2023-01-29T04:14:57;21.40;66.70
44435;DHT22;30138;20.964;105.830;2023-01-29T04:20:14;21.40;66.30
44435;DHT22;30138;20.964;105.830;2023-01-29T04:25:45;21.40;65.70
44435;DHT22;30138;20.964;105.830;2023-01-29T04:31:04;21.40;65.40
44435;DHT22;30138;20.964;105.830;2023-01-29T04:36:24;21.40;65.20
44435;DHT22;30138;20.964;105.830;2023-01-29T04:41:48;21.50;65.10
44435;DHT22;30138;20.964;105.830;2023-01-29T04:47:05;21.40;64.80
44435;DHT22;30138;20.964;105.830;2023-01-29T04:52:36;21.50;64.50
44435;DHT22;30138;20.964;105.830;2023-01-29T04:58:04;21.50;64.20
44435;DHT22;30138;20.964;105.830;2023-01-29T05:03:23;21.50;63.80
44435;DHT22;30138;20.964;105.830;2023-01-29T05:08:38;21.50;63.40
44435;DHT22;30138;20.964;105.830;2023-01-29T05:14:08;21.50;62.90
44435;DHT22;30138;20.964;105.830;2023-01-29T05:19:39;21.50;61.20
44435;DHT22;30138;20.964;105.830;2023-01-29T05:25:10;21.50;59.20
44435;DHT22;30138;20.964;105.830;2023-01-29T05:30:42;21.50;58.90
44435;DHT22;30138;20.964;105.830;2023-01-29T05:36:00;21.50;58.70
44435;DHT22;30138;20.964;105.830;2023-01-29T05:41:19;21.50;58.70
44435;DHT22;30138;20.964;105.830;2023-01-29T05:47:01;21.60;58.60
44435;DHT22;30138;20.964;105.830;2023-01-29T05:52:21;21.60;58.90
44435;DHT22;30138;20.964;105.830;2023-01-29T05:57:39;21.60;58.50
44435;DHT22;30138;20.964;105.830;2023-01-29T06:02:54;21.70;58.10
44435;DHT22;30138;20.964;105.830;2023-01-29T06:08:15;21.70;58.00
44435;DHT22;30138;20.964;105.830;2023-01-29T06:13:34;21.70;57.50
44435;DHT22;30138;20.964;105.830;2023-01-29T06:18:55;21.70;58.00
44435;DHT22;30138;20.964;105.830;2023-01-29T06:24:15;21.70;57.30
44435;DHT22;30138;20.964;105.830;2023-01-29T06:29:36;21.80;57.70
44435;DHT22;30138;20.964;105.830;2023-01-29T06:35:11;21.80;56.30
44435;DHT22;30138;20.964;105.830;2023-01-29T06:40:36;21.80;55.90
44435;DHT22;30138;20.964;105.830;2023-01-29T06:46:16;21.80;57.30
44435;DHT22;30138;20.964;105.830;2023-01-29T06:52:07;21.80;58.20
44435;DHT22;30138;20.964;105.830;2023-01-29T06:57:29;21.80;57.90
44435;DHT22;30138;20.964;105.830;2023-01-29T07:03:05;21.80;57.70
44435;DHT22;30138;20.964;105.830;2023-01-29T07:08:18;21.90;57.10
44435;DHT22;30138;20.964;105.830;2023-01-29T07:13:32;21.90;57.20
44435;DHT22;30138;20.964;105.830;2023-01-29T07:18:48;21.90;57.20
44435;DHT22;30138;20.964;105.830;2023-01-29T07:24:10;22.00;57.20
44435;DHT22;30138;20.964;105.830;2023-01-29T07:29:30;22.00;57.30
44435;DHT22;30138;20.964;105.830;2023-01-29T07:34:48;22.00;56.60
44435;DHT22;30138;20.964;105.830;2023-01-29T07:40:01;22.00;56.50
44435;DHT22;30138;20.964;105.830;2023-01-29T07:45:29;22.00;56.50
44435;DHT22;30138;20.964;105.830;2023-01-29T07:50:53;22.10;56.40
44435;DHT22;30138;20.964;105.830;2023-01-29T07:56:13;22.10;56.70
44435;DHT22;30138;20.964;105.830;2023-01-29T08:01:37;22.10;56.70
44435;DHT22;30138;20.964;105.830;2023-01-29T08:06:53;22.10;56.50
44435;DHT22;30138;20.964;105.830;2023-01-29T08:12:20;22.20;56.60
44435;DHT22;30138;20.964;105.830;2023-01-29T08:17:41;22.20;56.00
44435;DHT22;30138;20.964;105.830;2023-01-29T08:23:00;22.20;56.30
44435;DHT22;30138;20.964;105.830;2023-01-29T08:28:21;22.20;56.60
44435;DHT22;30138;20.964;105.830;2023-01-29T08:33:40;22.20;57.00
44435;DHT22;30138;20.964;105.830;2023-01-29T08:39:06;22.20;57.30
44435;DHT22;30138;20.964;105.830;2023-01-29T08:44:21;22.20;57.50
44435;DHT22;30138;20.964;105.830;2023-01-29T08:49:38;22.20;57.70
44435;DHT22;30138;20.964;105.830;2023-01-29T08:55:05;22.20;57.80
44435;DHT22;30138;20.964;105.830;2023-01-29T09:00:30;22.20;58.00
44435;DHT22;30138;20.964;105.830;2023-01-29T09:05:42;22.10;58.20
44435;DHT22;30138;20.964;105.830;2023-01-29T09:11:13;22.10;58.60
44435;DHT22;30138;20.964;105.830;2023-01-29T09:16:27;22.10;59.00
44435;DHT22;30138;20.964;105.830;2023-01-29T09:21:43;22.10;59.40
44435;DHT22;30138;20.964;105.830;2023-01-29T09:26:53;22.10;59.60
44435;DHT22;30138;20.964;105.830;2023-01-29T09:32:15;22.10;59.30
44435;DHT22;30138;20.964;105.830;2023-01-29T09:37:30;22.00;60.10
44435;DHT22;30138;20.964;105.830;2023-01-29T09:42:47;22.00;60.90
44435;DHT22;30138;20.964;105.830;2023-01-29T09:48:08;22.00;61.30
44435;DHT22;30138;20.964;105.830;2023-01-29T09:53:33;22.00;61.10
44435;DHT22;30138;20.964;105.830;2023-01-29T09:58:46;22.00;62.60
44435;DHT22;30138;20.964;105.830;2023-01-29T10:10:37;22.30;62.20
44435;DHT22;30138;20.964;105.830;2023-01-29T10:16:14;22.50;61.80
44435;DHT22;30138;20.964;105.830;2023-01-29T10:29:14;22.50;58.20
44435;DHT22;30138;20.964;105.830;2023-01-29T10:33:40;22.40;58.00
44435;DHT22;30138;20.964;105.830;2023-01-29T10:38:51;22.20;58.60
44435;DHT22;30138;20.964;105.830;2023-01-29T10:44:14;22.10;59.30
44435;DHT22;30138;20.964;105.830;2023-01-29T10:49:51;22.00;56.50
44435;DHT22;30138;20.964;105.830;2023-01-29T10:55:42;22.00;56.80
44435;DHT22;30138;20.964;105.830;2023-01-29T11:01:42;22.00;58.10
44435;DHT22;30138;20.964;105.830;2023-01-29T11:06:53;22.00;59.60
44435;DHT22;30138;20.964;105.830;2023-01-29T11:12:10;22.00;60.40
44435;DHT22;30138;20.964;105.830;2023-01-29T11:17:34;22.00;61.10
44435;DHT22;30138;20.964;105.830;2023-01-29T11:22:53;22.00;60.90
44435;DHT22;30138;20.964;105.830;2023-01-29T11:28:11;22.00;61.00
44435;DHT22;30138;20.964;105.830;2023-01-29T11:33:26;22.00;61.60
44435;DHT22;30138;20.964;105.830;2023-01-29T11:38:42;21.90;60.90
44435;DHT22;30138;20.964;105.830;2023-01-29T11:44:31;21.90;62.20
44435;DHT22;30138;20.964;105.830;2023-01-29T11:49:56;21.90;63.70
44435;DHT22;30138;20.964;105.830;2023-01-29T11:55:18;21.90;64.70
44435;DHT22;30138;20.964;105.830;2023-01-29T12:00:43;21.90;65.10
44435;DHT22;30138;20.964;105.830;2023-01-29T12:06:33;21.90;65.70
44435;DHT22;30138;20.964;105.830;2023-01-29T12:12:25;21.90;63.60
44435;DHT22;30138;20.964;105.830;2023-01-29T12:17:51;21.80;60.50
44435;DHT22;30138;20.964;105.830;2023-01-29T12:24:15;21.80;60.20
44435;DHT22;30138;20.964;105.830;2023-01-29T12:29:38;21.80;61.80
44435;DHT22;30138;20.964;105.830;2023-01-29T12:34:56;21.70;63.30
44435;DHT22;30138;20.964;105.830;2023-01-29T12:40:20;21.70;63.50
44435;DHT22;30138;20.964;105.830;2023-01-29T12:45:37;21.70;63.40
44435;DHT22;30138;20.964;105.830;2023-01-29T12:51:14;21.70;64.90
44435;DHT22;30138;20.964;105.830;2023-01-29T12:56:41;21.70;64.70
44435;DHT22;30138;20.964;105.830;2023-01-29T13:02:32;21.70;64.10
44435;DHT22;30138;20.964;105.830;2023-01-29T13:08:06;21.70;64.70
44435;DHT22;30138;20.964;105.830;2023-01-29T13:13:42;21.70;64.90
44435;DHT22;30138;20.964;105.830;2023-01-29T13:19:30;21.70;64.50
44435;DHT22;30138;20.964;105.830;2023-01-29T13:25:11;21.70;64.50
44435;DHT22;30138;20.964;105.830;2023-01-29T13:36:47;21.70;68.60
44435;DHT22;30138;20.964;105.830;2023-01-29T13:42:38;21.70;66.20
44435;DHT22;30138;20.964;105.830;2023-01-29T13:48:40;21.70;65.60
44435;DHT22;30138;20.964;105.830;2023-01-29T14:00:48;21.80;66.60
44435;DHT22;30138;20.964;105.830;2023-01-29T14:06:43;21.70;68.10
44435;DHT22;30138;20.964;105.830;2023-01-29T14:12:39;21.70;67.90
44435;DHT22;30138;20.964;105.830;2023-01-29T14:19:03;21.70;67.70
44435;DHT22;30138;20.964;105.830;2023-01-29T14:24:52;21.70;67.70
44435;DHT22;30138;20.964;105.830;2023-01-29T14:30:33;21.70;67.80
44435;DHT22;30138;20.964;105.830;2023-01-29T14:35:55;21.70;68.00
44435;DHT22;30138;20.964;105.830;2023-01-29T14:41:36;21.80;68.10
44435;DHT22;30138;20.964;105.830;2023-01-29T14:46:57;21.80;69.10
44435;DHT22;30138;20.964;105.830;2023-01-29T14:52:25;22.10;68.80
44435;DHT22;30138;20.964;105.830;2023-01-29T15:03:41;22.40;67.70
44435;DHT22;30138;20.964;105.830;2023-01-29T15:09:08;22.50;67.50
44435;DHT22;30138;20.964;105.830;2023-01-29T15:14:31;22.60;67.40
44435;DHT22;30138;20.964;105.830;2023-01-29T15:20:27;22.70;67.40
44435;DHT22;30138;20.964;105.830;2023-01-29T15:26:00;22.70;66.90
44435;DHT22;30138;20.964;105.830;2023-01-29T15:31:26;22.50;65.10
44435;DHT22;30138;20.964;105.830;2023-01-29T15:36:41;22.30;66.60
44435;DHT22;30138;20.964;105.830;2023-01-29T15:42:11;22.20;67.20
44435;DHT22;30138;20.964;105.830;2023-01-29T15:47:33;22.10;67.60
44435;DHT22;30138;20.964;105.830;2023-01-29T15:52:43;22.00;67.90
44435;DHT22;30138;20.964;105.830;2023-01-29T15:57:59;21.90;68.10
44435;DHT22;30138;20.964;105.830;2023-01-29T16:03:21;21.80;68.10
44435;DHT22;30138;20.964;105.830;2023-01-29T16:08:31;21.80;68.30
44435;DHT22;30138;20.964;105.830;2023-01-29T16:13:43;21.70;68.40
44435;DHT22;30138;20.964;105.830;2023-01-29T16:18:56;21.60;68.60
44435;DHT22;30138;20.964;105.830;2023-01-29T16:24:07;21.60;68.80
44435;DHT22;30138;20.964;105.830;2023-01-29T16:29:19;21.60;69.00
44435;DHT22;30138;20.964;105.830;2023-01-29T16:34:31;21.50;69.20
44435;DHT22;30138;20.964;105.830;2023-01-29T16:39:44;21.50;69.50
44435;DHT22;30138;20.964;105.830;2023-01-29T16:45:00;21.50;69.70
44435;DHT22;30138;20.964;105.830;2023-01-29T16:50:30;21.40;69.70
44435;DHT22;30138;20.964;105.830;2023-01-29T16:55:40;21.40;69.80
44435;DHT22;30138;20.964;105.830;2023-01-29T17:00:51;21.30;70.00
44435;DHT22;30138;20.964;105.830;2023-01-29T17:06:08;21.30;70.10
44435;DHT22;30138;20.964;105.830;2023-01-29T17:11:26;21.30;70.30
44435;DHT22;30138;20.964;105.830;2023-01-29T17:16:49;21.30;70.50
44435;DHT22;30138;20.964;105.830;2023-01-29T17:21:59;21.20;70.50
44435;DHT22;30138;20.964;105.830;2023-01-29T17:27:14;21.20;70.50
44435;DHT22;30138;20.964;105.830;2023-01-29T17:32:25;21.20;70.40
44435;DHT22;30138;20.964;105.830;2023-01-29T17:37:35;21.20;70.50
44435;DHT22;30138;20.964;105.830;2023-01-29T17:42:43;21.20;70.70
44435;DHT22;30138;20.964;105.830;2023-01-29T17:47:51;21.10;70.60
44435;DHT22;30138;20.964;105.830;2023-01-29T17:53:09;21.10;70.50
44435;DHT22;30138;20.964;105.830;2023-01-29T17:58:18;21.10;70.60
44435;DHT22;30138;20.964;105.830;2023-01-29T18:03:28;21.10;70.60
44435;DHT22;30138;20.964;105.830;2023-01-29T18:08:39;21.00;70.60
44435;DHT22;30138;20.964;105.830;2023-01-29T18:13:48;21.00;70.70
44435;DHT22;30138;20.964;105.830;2023-01-29T18:18:56;21.00;70.70
44435;DHT22;30138;20.964;105.830;2023-01-29T18:24:06;21.00;70.90
44435;DHT22;30138;20.964;105.830;2023-01-29T18:29:13;21.00;71.00
44435;DHT22;30138;20.964;105.830;2023-01-29T18:34:20;21.00;71.00
44435;DHT22;30138;20.964;105.830;2023-01-29T18:39:30;20.90;71.00
44435;DHT22;30138;20.964;105.830;2023-01-29T18:44:37;20.90;71.20
44435;DHT22;30138;20.964;105.830;2023-01-29T18:49:44;20.90;71.40
44435;DHT22;30138;20.964;105.830;2023-01-29T18:54:53;20.90;71.50
44435;DHT22;30138;20.964;105.830;2023-01-29T19:00:04;20.90;71.50
44435;DHT22;30138;20.964;105.830;2023-01-29T19:05:12;20.90;71.60
44435;DHT22;30138;20.964;105.830;2023-01-29T19:10:22;20.90;71.70
44435;DHT22;30138;20.964;105.830;2023-01-29T19:15:30;20.90;71.80
44435;DHT22;30138;20.964;105.830;2023-01-29T19:20:40;20.80;72.50
44435;DHT22;30138;20.964;105.830;2023-01-29T19:25:48;20.80;71.90
44435;DHT22;30138;20.964;105.830;2023-01-29T19:30:56;20.80;72.10
44435;DHT22;30138;20.964;105.830;2023-01-29T19:36:04;20.80;72.10
44435;DHT22;30138;20.964;105.830;2023-01-29T19:41:13;20.80;72.20
44435;DHT22;30138;20.964;105.830;2023-01-29T19:46:20;20.80;72.30
44435;DHT22;30138;20.964;105.830;2023-01-29T19:51:27;20.80;72.50
44435;DHT22;30138;20.964;105.830;2023-01-29T19:56:36;20.80;72.50
44435;DHT22;30138;20.964;105.830;2023-01-29T20:01:43;20.80;72.60
44435;DHT22;30138;20.964;105.830;2023-01-29T20:06:51;20.70;72.70
44435;DHT22;30138;20.964;105.830;2023-01-29T20:12:01;20.70;72.70
44435;DHT22;30138;20.964;105.830;2023-01-29T20:17:08;20.80;73.00
44435;DHT22;30138;20.964;105.830;2023-01-29T20:22:16;20.70;73.00
44435;DHT22;30138;20.964;105.830;2023-01-29T20:27:25;20.70;73.20
44435;DHT22;30138;20.964;105.830;2023-01-29T20:32:33;20.70;73.20
44435;DHT22;30138;20.964;105.830;2023-01-29T20:37:40;20.70;73.20
44435;DHT22;30138;20.964;105.830;2023-01-29T20:42:50;20.70;73.40
44435;DHT22;30138;20.964;105.830;2023-01-29T20:47:58;20.70;73.70
44435;DHT22;30138;20.964;105.830;2023-01-29T20:53:05;20.70;73.80
44435;DHT22;30138;20.964;105.830;2023-01-29T20:58:17;20.70;73.70
44435;DHT22;30138;20.964;105.830;2023-01-29T21:03:25;20.60;73.70
44435;DHT22;30138;20.964;105.830;2023-01-29T21:08:33;20.70;73.90
44435;DHT22;30138;20.964;105.830;2023-01-29T21:13:43;20.60;73.90
44435;DHT22;30138;20.964;105.830;2023-01-29T21:18:53;20.60;73.90
44435;DHT22;30138;20.964;105.830;2023-01-29T21:24:01;20.60;74.10
44435;DHT22;30138;20.964;105.830;2023-01-29T21:29:10;20.60;74.20
44435;DHT22;30138;20.964;105.830;2023-01-29T21:34:18;20.60;74.30
44435;DHT22;30138;20.964;105.830;2023-01-29T21:39:25;20.60;74.40
44435;DHT22;30138;20.964;105.830;2023-01-29T21:44:44;20.60;74.50
44435;DHT22;30138;20.964;105.830;2023-01-29T21:49:51;20.60;74.60
44435;DHT22;30138;20.964;105.830;2023-01-29T21:54:58;20.50;74.60
44435;DHT22;30138;20.964;105.830;2023-01-29T22:00:08;20.50;74.80
44435;DHT22;30138;20.964;105.830;2023-01-29T22:05:16;20.50;74.90
44435;DHT22;30138;20.964;105.830;2023-01-29T22:10:23;20.50;75.00
44435;DHT22;30138;20.964;105.830;2023-01-29T22:15:32;20.50;75.10
44435;DHT22;30138;20.964;105.830;2023-01-29T22:20:39;20.50;75.30
44435;DHT22;30138;20.964;105.830;2023-01-29T22:25:46;20.50;75.40
44435;DHT22;30138;20.964;105.830;2023-01-29T22:31:00;20.50;75.50
44435;DHT22;30138;20.964;105.830;2023-01-29T22:36:08;20.50;75.80
44435;DHT22;30138;20.964;105.830;2023-01-29T22:41:15;20.40;75.80
44435;DHT22;30138;20.964;105.830;2023-01-29T22:46:24;20.40;75.90
44435;DHT22;30138;20.964;105.830;2023-01-29T22:51:31;20.40;76.00
44435;DHT22;30138;20.964;105.830;2023-01-29T22:56:38;20.40;76.00
44435;DHT22;30138;20.964;105.830;2023-01-29T23:01:46;20.40;76.20
44435;DHT22;30138;20.964;105.830;2023-01-29T23:06:53;20.40;76.20
44435;DHT22;30138;20.964;105.830;2023-01-29T23:12:00;20.40;76.40
44435;DHT22;30138;20.964;105.830;2023-01-29T23:17:11;20.40;76.40
44435;DHT22;30138;20.964;105.830;2023-01-29T23:22:19;20.30;76.40
44435;DHT22;30138;20.964;105.830;2023-01-29T23:27:28;20.30;76.50
44435;DHT22;30138;20.964;105.830;2023-01-29T23:32:38;20.30;76.70
44435;DHT22;30138;20.964;105.830;2023-01-29T23:37:45;20.30;76.90
44435;DHT22;30138;20.964;105.830;2023-01-29T23:42:53;20.30;77.00
44435;DHT22;30138;20.964;105.830;2023-01-29T23:48:02;20.20;77.10
44435;DHT22;30138;20.964;105.830;2023-01-29T23:53:09;20.20;77.10
44435;DHT22;30138;20.964;105.830;2023-01-29T23:58:17;20.20;77.10
